Time;durP1;ratioP1;P1;durP2;ratioP2;P2;SDS_P1;SDS_P2;PMS_P1;PMS_P2;Temp;Humidity;BMP_temperature;BMP_pressure;BME280_temperature;BME280_humidity;BME280_pressure;Samples;Min_cycle;Max_cycle;Signal;HPM_P1;HPM_P2
2021/01/19 00:01:30;;;;;;;12.67;11.33;;;;;;;3.38;88.78;100503.88;4992790;28;20636;-76
2021/01/19 00:03:55;;;;;;;13.97;12.83;;;;;;;3.38;88.70;100498.47;4993613;28;20201;-77
2021/01/19 00:06:20;;;;;;;19.93;14.90;;;;;;;3.37;88.77;100504.94;4975732;28;20264;-74
2021/01/19 00:08:46;;;;;;;11.07;10.13;;;;;;;3.36;88.73;100509.53;4993596;28;20173;-73
2021/01/19 00:11:11;;;;;;;10.03;9.10;;;;;;;3.30;88.75;100499.75;4993559;28;20182;-76
2021/01/19 00:13:36;;;;;;;18.47;16.97;;;;;;;3.29;89.31;100498.13;4993530;28;20193;-82
2021/01/19 00:16:02;;;;;;;16.67;15.20;;;;;;;3.26;89.21;100491.38;4993334;28;20180;-73
2021/01/19 00:18:27;;;;;;;15.23;13.93;;;;;;;3.26;89.62;100495.97;4993246;28;20472;-78
2021/01/19 00:20:52;;;;;;;13.93;8.87;;;;;;;3.24;89.90;100488.13;4993314;28;20496;-80
2021/01/19 00:23:18;;;;;;;16.83;15.17;;;;;;;3.22;90.05;100478.66;4993252;28;20281;-78
2021/01/19 00:25:44;;;;;;;14.83;9.47;;;;;;;3.24;90.58;100473.81;4994912;28;20200;-72
2021/01/19 00:28:09;;;;;;;21.73;20.03;;;;;;;3.22;90.37;100473.28;5000846;28;20231;-72
2021/01/19 00:30:42;;;;;;;12.40;11.37;;;;;;;3.25;90.70;100468.16;4999073;28;20179;-72
2021/01/19 00:33:08;;;;;;;15.80;14.37;;;;;;;3.28;90.86;100466.81;4994208;28;20329;-72
2021/01/19 00:35:34;;;;;;;23.07;20.93;;;;;;;3.29;90.99;100468.44;4993139;28;20411;-72
2021/01/19 00:38:00;;;;;;;23.70;21.23;;;;;;;3.33;90.91;100461.47;4992868;28;20417;-72
2021/01/19 00:40:30;;;;;;;23.93;22.03;;;;;;;3.34;90.67;100457.69;4992996;28;20420;-71
2021/01/19 00:42:57;;;;;;;9.53;8.63;;;;;;;3.37;90.87;100457.16;4992941;28;20612;-72
2021/01/19 00:45:22;;;;;;;17.80;15.40;;;;;;;3.38;90.15;100450.66;4991928;28;20955;-71
2021/01/19 00:47:47;;;;;;;11.73;10.60;;;;;;;3.47;89.39;100459.06;4992625;28;20456;-72
2021/01/19 00:50:13;;;;;;;10.10;9.20;;;;;;;3.47;89.48;100451.78;4992780;28;20181;-72
2021/01/19 00:52:39;;;;;;;9.17;7.60;;;;;;;3.48;89.28;100448.03;4975169;28;20189;-72
2021/01/19 00:55:07;;;;;;;9.70;8.77;;;;;;;3.49;89.48;100446.13;4975185;28;20707;-72
2021/01/19 00:57:32;;;;;;;10.10;8.60;;;;;;;3.49;89.28;100424.53;4992277;28;20188;-72
2021/01/19 00:59:58;;;;;;;10.70;9.80;;;;;;;3.51;88.97;100430.47;4992065;28;20425;-71
2021/01/19 01:02:23;;;;;;;21.00;19.20;;;;;;;3.51;89.10;100428.56;4992625;28;20197;-71
2021/01/19 01:04:48;;;;;;;18.67;17.13;;;;;;;3.51;89.00;100428.56;4992908;28;20185;-71
2021/01/19 01:07:13;;;;;;;8.67;7.87;;;;;;;3.55;88.69;100426.97;4992132;28;20179;-72
2021/01/19 01:09:39;;;;;;;17.30;15.83;;;;;;;3.59;88.43;100419.94;4992562;28;20173;-72
2021/01/19 01:12:05;;;;;;;6.77;6.20;;;;;;;3.59;88.32;100421.84;4992703;28;20176;-72
2021/01/19 01:14:31;;;;;;;11.03;10.13;;;;;;;3.59;87.91;100414.53;4992362;28;20795;-72
2021/01/19 01:16:56;;;;;;;13.60;12.43;;;;;;;3.63;87.79;100412.16;4992037;28;20531;-71
2021/01/19 01:19:21;;;;;;;9.47;7.00;;;;;;;3.64;87.56;100411.06;4992205;28;20177;-74
2021/01/19 01:21:47;;;;;;;7.43;6.70;;;;;;;3.67;87.76;100415.94;4992195;28;20176;-76
2021/01/19 01:24:12;;;;;;;8.23;7.43;;;;;;;3.69;87.24;100415.66;4992157;28;20216;-73
2021/01/19 01:26:37;;;;;;;9.90;8.93;;;;;;;3.72;87.28;100401.59;4991745;28;20224;-73
2021/01/19 01:29:06;;;;;;;9.00;8.10;;;;;;;3.72;87.35;100407.81;4992071;28;20684;-72
2021/01/19 01:31:32;;;;;;;8.63;7.77;;;;;;;3.75;87.04;100392.97;4992132;28;20177;-73
2021/01/19 01:33:57;;;;;;;12.23;8.67;;;;;;;3.78;86.69;100397.84;4992259;28;20416;-74
2021/01/19 01:36:23;;;;;;;14.80;13.33;;;;;;;3.80;86.88;100395.69;4991587;28;20173;-72
2021/01/19 01:38:49;;;;;;;10.80;9.73;;;;;;;3.81;87.04;100379.22;4991844;28;20177;-72
2021/01/19 01:41:16;;;;;;;7.90;6.57;;;;;;;3.81;86.89;100373.00;4991929;28;20416;-73
2021/01/19 01:43:42;;;;;;;12.87;11.60;;;;;;;3.81;86.52;100367.59;4991732;28;20211;-71
2021/01/19 01:46:12;;;;;;;14.77;13.47;;;;;;;3.79;86.83;100361.66;4991399;28;20425;-72
2021/01/19 01:48:42;;;;;;;6.93;6.23;;;;;;;3.79;86.59;100359.75;4992025;28;20173;-71
2021/01/19 01:51:08;;;;;;;7.57;6.87;;;;;;;3.80;86.63;100364.09;4991608;28;20467;-72
2021/01/19 01:53:36;;;;;;;7.50;6.97;;;;;;;3.83;86.58;100360.84;4991822;28;20172;-73
2021/01/19 01:56:02;;;;;;;8.80;8.10;;;;;;;3.86;86.31;100363.00;4991240;28;20482;-72
2021/01/19 01:58:27;;;;;;;12.23;11.30;;;;;;;3.81;86.55;100348.69;4991479;28;20646;-72
2021/01/19 02:00:53;;;;;;;6.83;6.23;;;;;;;3.86;86.05;100354.06;4991008;28;20229;-72
2021/01/19 02:03:19;;;;;;;5.03;4.63;;;;;;;3.89;86.16;100342.72;4991529;28;20682;-72
2021/01/19 02:05:44;;;;;;;10.63;9.83;;;;;;;3.88;86.21;100339.22;4974014;28;20424;-71
2021/01/19 02:08:15;;;;;;;5.40;5.00;;;;;;;3.87;86.21;100336.78;4991283;28;20187;-71
2021/01/19 02:11:04;;;;;;;12.27;11.37;;;;;;;3.84;86.39;100337.31;4991636;28;20526;-72
2021/01/19 02:14:07;;;;;;;6.03;5.53;;;;;;;3.81;87.23;100332.47;4991473;28;20428;-73
2021/01/19 02:16:42;;;;;;;4.40;4.00;;;;;;;3.74;88.11;100321.91;4990033;28;20468;-72
2021/01/19 02:19:41;;;;;;;9.73;9.03;;;;;;;3.71;88.63;100308.94;4991423;28;20424;-71
2021/01/19 02:22:16;;;;;;;6.93;6.33;;;;;;;3.70;88.76;100309.22;4991315;28;20421;-72
2021/01/19 02:25:03;;;;;;;4.60;3.87;;;;;;;3.70;88.66;100314.63;4991320;28;20172;-71
2021/01/19 02:27:31;;;;;;;6.83;6.27;;;;;;;3.68;88.64;100314.09;4990422;28;20798;-72
2021/01/19 02:30:18;;;;;;;7.67;6.90;;;;;;;3.67;88.72;100299.75;4989093;28;20777;-71
2021/01/19 02:33:03;;;;;;;12.93;11.47;;;;;;;3.68;89.24;100305.97;4983427;28;20230;-73
2021/01/19 02:35:43;;;;;;;11.80;10.90;;;;;;;3.71;88.50;100300.03;4989582;28;20660;-72
2021/01/19 02:38:35;;;;;;;6.30;5.83;;;;;;;3.75;88.03;100309.22;4989315;28;20223;-71
2021/01/19 02:41:02;;;;;;;6.13;5.63;;;;;;;3.76;88.06;100294.63;4991138;28;20177;-72
2021/01/19 02:43:28;;;;;;;11.93;11.00;;;;;;;3.78;87.50;100293.28;4991215;28;20216;-72
2021/01/19 02:45:54;;;;;;;8.20;7.40;;;;;;;3.78;87.61;100287.06;4991079;28;20424;-72
2021/01/19 02:48:24;;;;;;;10.17;9.33;;;;;;;3.78;87.56;100278.97;4990717;28;20184;-71
2021/01/19 02:50:50;;;;;;;5.67;5.10;;;;;;;3.79;87.55;100272.50;4973519;28;20188;-71
2021/01/19 02:53:16;;;;;;;4.00;3.67;;;;;;;3.82;87.00;100274.63;4991018;28;20181;-71
2021/01/19 02:55:44;;;;;;;5.70;5.20;;;;;;;3.82;86.96;100277.34;4991167;28;20181;-71
2021/01/19 02:58:26;;;;;;;10.97;9.97;;;;;;;3.84;86.98;100267.06;4990624;28;20210;-71
2021/01/19 03:01:16;;;;;;;10.27;9.47;;;;;;;3.85;87.09;100266.78;4973518;28;20188;-72
2021/01/19 03:03:42;;;;;;;4.13;3.83;;;;;;;3.86;86.67;100260.31;4990893;28;20197;-71
2021/01/19 03:06:12;;;;;;;10.67;9.90;;;;;;;3.82;87.27;100263.84;4990670;28;20720;-72
2021/01/19 03:08:41;;;;;;;6.80;6.33;;;;;;;3.83;86.98;100260.03;4976524;28;20767;-72
2021/01/19 03:11:10;;;;;;;11.00;10.03;;;;;;;3.79;87.05;100250.88;4994762;28;20170;-71
2021/01/19 03:13:36;;;;;;;10.60;9.80;;;;;;;3.74;87.50;100250.84;4977143;28;20837;-72
2021/01/19 03:16:09;;;;;;;8.43;6.50;;;;;;;3.71;87.86;100243.28;4994661;28;20424;-71
2021/01/19 03:18:37;;;;;;;8.03;7.10;;;;;;;3.69;87.33;100240.88;4994532;28;20189;-72
2021/01/19 03:21:06;;;;;;;9.87;9.07;;;;;;;3.68;87.75;100235.75;4976397;28;20444;-71
2021/01/19 03:23:33;;;;;;;4.03;3.77;;;;;;;3.65;87.62;100230.88;4993272;28;20213;-71
2021/01/19 03:25:59;;;;;;;12.73;11.63;;;;;;;3.63;87.77;100233.84;4994157;28;20427;-71
2021/01/19 03:28:25;;;;;;;11.70;10.83;;;;;;;3.65;87.61;100233.59;4993618;28;20781;-72
2021/01/19 03:30:50;;;;;;;7.00;6.50;;;;;;;3.65;87.68;100233.59;4994354;28;20232;-71
2021/01/19 03:33:16;;;;;;;8.60;7.80;;;;;;;3.61;87.58;100225.19;4994296;28;20169;-71
2021/01/19 03:35:42;;;;;;;6.83;6.30;;;;;;;3.60;87.83;100234.38;4993858;28;20239;-71
2021/01/19 03:38:07;;;;;;;9.60;8.80;;;;;;;3.61;87.81;100230.59;4993644;28;20579;-72
2021/01/19 03:40:33;;;;;;;6.10;5.53;;;;;;;3.61;87.56;100221.69;4976638;28;20213;-72
2021/01/19 03:42:59;;;;;;;6.70;6.13;;;;;;;3.58;87.50;100220.34;4976508;28;20205;-77
2021/01/19 03:45:26;;;;;;;5.63;4.93;;;;;;;3.56;87.72;100217.91;4994157;28;20503;-74
2021/01/19 03:47:51;;;;;;;10.03;9.30;;;;;;;3.56;87.78;100217.91;4993715;28;20180;-74
2021/01/19 03:50:16;;;;;;;9.30;8.53;;;;;;;3.55;87.54;100208.19;4994137;28;20507;-74
2021/01/19 03:52:42;;;;;;;6.43;5.93;;;;;;;3.57;88.07;100205.22;4993950;28;20199;-72
2021/01/19 03:55:07;;;;;;;8.63;7.67;;;;;;;3.54;88.09;100189.56;4993875;28;20704;-72
2021/01/19 03:57:33;;;;;;;9.83;9.23;;;;;;;3.54;88.46;100190.38;4994700;28;20216;-71
2021/01/19 03:59:58;;;;;;;5.53;5.13;;;;;;;3.54;88.61;100182.25;4993771;28;20239;-72
2021/01/19 04:02:23;;;;;;;8.97;8.27;;;;;;;3.52;88.29;100175.50;4993587;28;20231;-73
2021/01/19 04:04:49;;;;;;;8.40;7.90;;;;;;;3.49;88.87;100168.78;4993655;28;20186;-72
2021/01/19 04:07:14;;;;;;;8.80;8.10;;;;;;;3.51;88.21;100163.91;4992984;28;20224;-71
2021/01/19 04:09:40;;;;;;;7.80;7.23;;;;;;;3.46;88.95;100171.19;4993466;28;20213;-73
2021/01/19 04:12:05;;;;;;;9.07;8.50;;;;;;;3.43;89.01;100159.03;4993432;28;20224;-72
2021/01/19 04:14:30;;;;;;;8.33;7.63;;;;;;;3.47;89.50;100162.84;4993750;28;20178;-71
2021/01/19 04:16:56;;;;;;;6.87;6.37;;;;;;;3.47;89.84;100159.28;4992858;28;20174;-72
2021/01/19 04:19:21;;;;;;;2.33;2.13;;;;;;;3.38;90.47;100150.13;4993127;28;20264;-71
2021/01/19 04:21:46;;;;;;;5.33;4.93;;;;;;;3.30;91.16;100148.78;4993421;28;20583;-71
2021/01/19 04:24:12;;;;;;;4.07;3.77;;;;;;;3.27;91.38;100146.63;4993307;28;20276;-73
2021/01/19 04:26:37;;;;;;;4.27;3.97;;;;;;;3.22;91.45;100147.44;4992661;28;20204;-71
2021/01/19 04:29:02;;;;;;;9.17;8.57;;;;;;;3.19;91.91;100136.38;4993265;28;20177;-75
2021/01/19 04:31:27;;;;;;;9.27;8.63;;;;;;;3.22;92.31;100127.75;4993109;28;20216;-71
2021/01/19 04:33:53;;;;;;;8.00;7.40;;;;;;;3.20;92.01;100129.91;4993170;28;20209;-71
2021/01/19 04:36:18;;;;;;;7.93;7.33;;;;;;;3.23;91.49;100115.88;4990684;28;20195;-70
2021/01/19 04:38:43;;;;;;;7.67;7.07;;;;;;;3.24;91.33;100117.47;4992705;28;20185;-71
2021/01/19 04:41:10;;;;;;;7.27;6.73;;;;;;;3.23;91.52;100110.47;4992799;28;20181;-72
2021/01/19 04:43:36;;;;;;;6.17;5.63;;;;;;;3.22;91.50;100108.84;4992899;28;20213;-70
2021/01/19 04:46:05;;;;;;;6.03;5.57;;;;;;;3.27;91.06;100103.44;4992713;28;20480;-71
2021/01/19 04:48:31;;;;;;;6.63;6.13;;;;;;;3.29;90.56;100103.97;4992009;28;20276;-71
2021/01/19 04:50:57;;;;;;;7.43;5.90;;;;;;;3.29;90.27;100090.47;4992428;28;20432;-71
2021/01/19 04:53:28;;;;;;;6.27;5.77;;;;;;;3.32;90.06;100087.22;4992817;28;20176;-71
2021/01/19 04:55:54;;;;;;;5.37;5.07;;;;;;;3.35;90.05;100075.09;4992529;28;20173;-71
2021/01/19 04:58:22;;;;;;;5.50;5.07;;;;;;;3.31;89.56;100074.00;4990845;28;20185;-72
2021/01/19 05:01:08;;;;;;;4.87;4.57;;;;;;;3.33;89.97;100071.81;4991060;28;20215;-74
2021/01/19 05:03:56;;;;;;;4.30;4.00;;;;;;;3.37;89.12;100045.91;4990817;28;20476;-71
2021/01/19 05:06:59;;;;;;;4.93;4.53;;;;;;;3.33;89.39;100045.66;4991819;28;20587;-71
2021/01/19 05:09:35;;;;;;;6.07;4.27;;;;;;;3.38;89.08;100044.84;4992351;28;20196;-71
2021/01/19 05:12:03;;;;;;;5.20;4.23;;;;;;;3.37;89.34;100040.53;4992442;28;20421;-72
2021/01/19 05:14:37;;;;;;;4.70;4.40;;;;;;;3.28;89.08;100032.97;4992351;28;20428;-71
2021/01/19 05:17:04;;;;;;;4.30;2.90;;;;;;;3.40;88.84;100029.16;4991188;28;21045;-71
2021/01/19 05:19:29;;;;;;;4.40;4.00;;;;;;;3.36;89.04;100026.22;4990838;28;20448;-72
2021/01/19 05:21:55;;;;;;;2.47;1.67;;;;;;;3.41;88.24;100020.78;4991306;28;20184;-71
2021/01/19 05:24:21;;;;;;;4.70;4.30;;;;;;;3.40;88.19;100018.38;4992099;28;20578;-71
2021/01/19 05:26:47;;;;;;;4.80;4.37;;;;;;;3.41;88.05;100010.00;4991504;28;20232;-71
2021/01/19 05:29:12;;;;;;;4.53;4.27;;;;;;;3.33;88.40;99991.69;4990377;28;20953;-73
2021/01/19 05:31:37;;;;;;;3.90;3.60;;;;;;;3.34;88.29;99985.19;4991409;28;20593;-71
2021/01/19 05:34:08;;;;;;;2.00;1.87;;;;;;;3.41;88.30;99971.38;4991977;28;20216;-71
2021/01/19 05:36:39;;;;;;;3.10;2.90;;;;;;;3.42;87.62;99979.19;4991375;28;20232;-72
2021/01/19 05:39:07;;;;;;;2.33;2.13;;;;;;;3.40;87.80;99967.88;4991891;28;20178;-71
2021/01/19 05:41:52;;;;;;;1.40;1.30;;;;;;;3.43;87.49;99958.41;4991795;28;20170;-71
2021/01/19 05:44:25;;;;;;;2.50;2.30;;;;;;;3.47;86.93;99944.09;4991585;28;20463;-71
2021/01/19 05:46:53;;;;;;;3.53;3.23;;;;;;;3.48;86.73;99950.31;4991164;28;20905;-71
2021/01/19 05:49:23;;;;;;;3.30;2.60;;;;;;;3.49;86.32;99944.63;4991677;28;20474;-71
2021/01/19 05:51:53;;;;;;;3.80;3.40;;;;;;;3.45;86.57;99940.84;4991582;28;20938;-73
2021/01/19 05:54:30;;;;;;;3.37;2.93;;;;;;;3.50;86.09;99938.16;4991532;28;20434;-72
2021/01/19 05:57:19;;;;;;;5.47;2.67;;;;;;;3.55;85.60;99935.41;4990926;28;20503;-71
2021/01/19 05:59:52;;;;;;;3.40;1.73;;;;;;;3.54;85.39;99936.50;4974024;28;20412;-72
2021/01/19 06:02:20;;;;;;;1.77;1.53;;;;;;;3.54;85.26;99916.78;4991419;28;20416;-72
2021/01/19 06:04:53;;;;;;;0.97;0.90;;;;;;;3.56;84.71;99923.50;4991371;28;20991;-72
2021/01/19 06:07:20;;;;;;;2.87;1.63;;;;;;;3.56;84.20;99910.00;4973502;28;20530;-71
2021/01/19 06:09:46;;;;;;;2.20;2.00;;;;;;;3.59;83.93;99906.75;4991346;28;20520;-71
2021/01/19 06:12:12;;;;;;;1.70;1.30;;;;;;;3.63;83.48;99903.50;4991475;28;20416;-72
2021/01/19 06:14:39;;;;;;;8.40;1.43;;;;;;;3.64;83.67;99905.13;4991250;28;20641;-71
2021/01/19 06:17:08;;;;;;;3.30;2.10;;;;;;;3.65;83.62;99901.34;4990894;28;20842;-71
2021/01/19 06:19:35;;;;;;;1.20;0.83;;;;;;;3.67;83.00;99889.16;4991236;28;20413;-71
2021/01/19 06:22:15;;;;;;;2.33;2.00;;;;;;;3.63;83.56;99882.72;4990730;28;20416;-71
2021/01/19 06:24:42;;;;;;;2.13;1.90;;;;;;;3.67;83.06;99882.97;4973783;28;20424;-71
2021/01/19 06:27:10;;;;;;;3.03;2.23;;;;;;;3.66;83.04;99884.03;4990631;28;20165;-72
2021/01/19 06:29:35;;;;;;;2.17;1.97;;;;;;;3.59;84.02;99868.13;4990956;28;20420;-71
2021/01/19 06:32:03;;;;;;;1.03;1.03;;;;;;;3.64;83.34;99853.81;4991049;28;20174;-71
2021/01/19 06:34:37;;;;;;;3.07;1.87;;;;;;;3.64;83.41;99853.81;4990992;28;20480;-71
2021/01/19 06:37:03;;;;;;;1.23;1.10;;;;;;;3.63;83.81;99849.50;4990658;28;20260;-72
2021/01/19 06:39:35;;;;;;;3.47;1.80;;;;;;;3.57;84.04;99840.59;4992903;28;20253;-72
2021/01/19 06:42:15;;;;;;;2.27;1.37;;;;;;;3.60;83.94;99829.22;4999271;28;20286;-72
2021/01/19 06:44:48;;;;;;;3.73;1.57;;;;;;;3.56;83.99;99823.59;4995453;28;20289;-71
2021/01/19 06:47:20;;;;;;;1.10;0.90;;;;;;;3.49;84.97;99817.72;4994725;28;20192;-72
2021/01/19 06:49:45;;;;;;;2.73;2.07;;;;;;;3.45;85.25;99808.53;4995844;28;20200;-71
2021/01/19 06:52:15;;;;;;;1.17;0.97;;;;;;;3.45;84.99;99819.34;4977712;28;20940;-71
2021/01/19 06:55:02;;;;;;;2.17;1.87;;;;;;;3.38;85.52;99807.25;4995016;28;20186;-71
2021/01/19 06:57:30;;;;;;;2.17;1.30;;;;;;;3.41;85.83;99812.88;4994403;28;20823;-71
2021/01/19 07:00:10;;;;;;;2.80;1.63;;;;;;;3.39;85.71;99798.88;4977175;28;20633;-71
2021/01/19 07:02:40;;;;;;;3.33;1.10;;;;;;;3.39;85.06;99800.75;4994927;28;20196;-71
2021/01/19 07:05:24;;;;;;;3.73;2.00;;;;;;;3.35;85.69;99792.41;4994540;28;20177;-71
2021/01/19 07:08:17;;;;;;;4.53;1.90;;;;;;;3.39;85.67;99781.84;4994147;28;20231;-71
2021/01/19 07:10:50;;;;;;;2.80;1.50;;;;;;;3.38;85.39;99780.25;4994682;28;20162;-71
2021/01/19 07:13:26;;;;;;;0.97;0.70;;;;;;;3.37;84.88;99771.34;4994780;28;20451;-71
2021/01/19 07:15:57;;;;;;;4.07;1.90;;;;;;;3.32;85.62;99749.75;4994459;28;20412;-72
2021/01/19 07:18:31;;;;;;;5.30;2.10;;;;;;;3.33;85.72;99743.31;4994200;28;20463;-71
2021/01/19 07:21:03;;;;;;;0.60;0.50;;;;;;;3.32;85.88;99743.56;4994448;28;20213;-71
2021/01/19 07:23:44;;;;;;;4.13;1.57;;;;;;;3.31;85.77;99731.16;4993452;28;20471;-72
2021/01/19 07:26:10;;;;;;;8.47;1.93;;;;;;;3.29;86.08;99723.34;4976414;28;20436;-73
2021/01/19 07:28:35;;;;;;;4.90;2.00;;;;;;;3.24;87.02;99720.69;4994098;28;20502;-73
2021/01/19 07:31:01;;;;;;;3.17;1.37;;;;;;;3.24;86.92;99717.97;4994093;28;20487;-73
2021/01/19 07:33:29;;;;;;;3.20;1.67;;;;;;;3.25;87.23;99715.00;4994306;28;20205;-73
2021/01/19 07:35:55;;;;;;;6.37;2.70;;;;;;;3.26;86.39;99703.13;4994369;28;20184;-76
2021/01/19 07:38:23;;;;;;;1.03;0.83;;;;;;;3.27;87.05;99696.63;4993798;28;20424;-73
2021/01/19 07:40:49;;;;;;;4.00;1.60;;;;;;;3.27;87.57;99695.81;4993951;28;21084;-71
2021/01/19 07:43:16;;;;;;;6.60;2.20;;;;;;;3.22;88.24;99693.16;4993851;28;20471;-71
2021/01/19 07:45:55;;;;;;;1.80;0.83;;;;;;;3.22;88.03;99685.06;4993564;28;20561;-73
2021/01/19 07:48:35;;;;;;;2.10;1.60;;;;;;;3.20;88.58;99681.84;4993241;28;20579;-73
2021/01/19 07:51:16;;;;;;;3.07;1.47;;;;;;;3.15;88.79;99679.97;4993629;28;20420;-73
2021/01/19 07:53:49;;;;;;;2.93;1.93;;;;;;;3.16;88.85;99670.78;4992939;28;20908;-72
2021/01/19 07:56:29;;;;;;;4.50;2.20;;;;;;;3.19;88.71;99672.16;4993188;28;20440;-73
2021/01/19 07:58:55;;;;;;;3.27;2.50;;;;;;;3.14;89.02;99672.97;4991373;28;20885;-73
2021/01/19 08:01:39;;;;;;;5.93;2.83;;;;;;;3.15;89.57;99662.97;4980825;28;20791;-73
2021/01/19 08:04:12;;;;;;;10.63;3.80;;;;;;;3.11;89.52;99659.25;4993523;28;20216;-73
2021/01/19 08:06:39;;;;;;;2.63;1.33;;;;;;;3.09;90.12;99658.72;4993188;28;20922;-73
2021/01/19 08:09:15;;;;;;;2.87;0.87;;;;;;;3.07;90.02;99647.41;4993619;28;20404;-73
2021/01/19 08:11:43;;;;;;;6.00;3.03;;;;;;;3.02;90.49;99633.94;4993457;28;20431;-73
2021/01/19 08:14:09;;;;;;;6.27;2.87;;;;;;;3.05;90.43;99633.41;4993530;28;20412;-73
2021/01/19 08:16:38;;;;;;;3.57;1.40;;;;;;;3.08;90.57;99632.81;4993187;28;20928;-73
2021/01/19 08:19:07;;;;;;;5.97;1.80;;;;;;;3.04;90.06;99616.41;4993584;28;20415;-74
2021/01/19 08:21:34;;;;;;;0.90;0.70;;;;;;;3.03;90.69;99622.06;4993371;28;20832;-73
2021/01/19 08:24:03;;;;;;;2.33;1.23;;;;;;;2.99;91.34;99619.91;4993270;28;20518;-73
2021/01/19 08:26:31;;;;;;;1.73;1.63;;;;;;;3.01;90.35;99602.66;4992748;28;20440;-73
2021/01/19 08:28:56;;;;;;;0.87;0.87;;;;;;;3.00;91.08;99596.44;4993170;28;20815;-73
2021/01/19 08:31:26;;;;;;;5.53;2.43;;;;;;;2.99;90.98;99594.84;4993752;28;20432;-73
2021/01/19 08:33:53;;;;;;;3.53;2.73;;;;;;;2.91;91.48;99581.97;4975998;28;20196;-74
2021/01/19 08:36:19;;;;;;;4.13;2.13;;;;;;;2.90;92.05;99574.97;4992873;28;20421;-75
2021/01/19 08:38:47;;;;;;;1.13;0.77;;;;;;;2.99;91.45;99571.34;4993258;28;20178;-73
2021/01/19 08:41:17;;;;;;;1.67;1.50;;;;;;;2.95;91.93;99559.53;4992931;28;20444;-71
2021/01/19 08:44:03;;;;;;;2.37;2.07;;;;;;;2.94;91.90;99567.91;4992522;28;21077;-71
2021/01/19 08:46:32;;;;;;;3.67;1.83;;;;;;;2.99;91.33;99557.88;4991797;28;20460;-71
2021/01/19 08:49:07;;;;;;;2.13;1.80;;;;;;;3.01;91.06;99562.16;4992680;28;20436;-71
2021/01/19 08:51:34;;;;;;;0.80;0.80;;;;;;;3.00;90.75;99566.75;4992769;28;20448;-70
2021/01/19 08:53:59;;;;;;;1.00;0.90;;;;;;;2.94;91.06;99555.22;4992700;28;20416;-71
2021/01/19 08:56:26;;;;;;;2.73;1.97;;;;;;;2.94;91.12;99549.03;4974599;28;20783;-71
2021/01/19 08:58:52;;;;;;;2.00;1.03;;;;;;;2.94;91.45;99554.41;4992621;28;20169;-71
2021/01/19 09:01:18;;;;;;;2.40;1.47;;;;;;;2.93;90.57;99559.00;4992529;28;20424;-70
2021/01/19 09:03:57;;;;;;;3.40;2.40;;;;;;;2.92;91.39;99554.72;4992432;28;20510;-71
2021/01/19 09:06:23;;;;;;;2.47;2.23;;;;;;;2.86;92.29;99547.72;4991264;28;20292;-71
2021/01/19 09:08:59;;;;;;;1.73;1.53;;;;;;;2.89;92.44;99552.56;4990445;28;21039;-72
2021/01/19 09:11:27;;;;;;;3.30;2.23;;;;;;;2.90;91.77;99548.78;4992136;28;20200;-71
2021/01/19 09:14:07;;;;;;;1.43;1.33;;;;;;;2.89;92.10;99547.19;4992091;28;20409;-71
2021/01/19 09:16:33;;;;;;;1.77;1.67;;;;;;;2.85;91.92;99535.31;4954428;28;20417;-71
2021/01/19 09:19:00;;;;;;;2.50;2.20;;;;;;;2.83;92.25;99539.41;4972667;28;20405;-72
2021/01/19 09:21:27;;;;;;;2.67;1.50;;;;;;;2.80;92.02;99538.06;4979011;28;20547;-71
2021/01/19 09:23:52;;;;;;;4.27;2.33;;;;;;;2.79;91.49;99536.47;4989648;28;20487;-70
2021/01/19 09:26:18;;;;;;;2.43;1.40;;;;;;;2.81;91.67;99528.09;4991376;28;20421;-71
2021/01/19 09:28:43;;;;;;;1.73;1.60;;;;;;;2.79;91.64;99522.19;4991628;28;20177;-71
2021/01/19 09:31:22;;;;;;;2.73;2.00;;;;;;;2.71;91.92;99520.88;4991825;28;20209;-71
2021/01/19 09:33:52;;;;;;;2.77;2.20;;;;;;;2.68;91.95;99518.75;4992077;28;20176;-72
2021/01/19 09:36:18;;;;;;;1.33;1.23;;;;;;;2.72;91.75;99508.19;4991605;28;20415;-72
2021/01/19 09:38:47;;;;;;;0.80;0.80;;;;;;;2.66;91.98;99518.22;4991283;28;20427;-71
2021/01/19 09:41:15;;;;;;;1.90;1.70;;;;;;;2.63;92.06;99513.41;4991669;28;20412;-73
2021/01/19 09:43:45;;;;;;;2.40;1.20;;;;;;;2.62;91.96;99503.72;4991991;28;20748;-74
2021/01/19 09:46:10;;;;;;;2.90;2.30;;;;;;;2.59;91.84;99506.94;4991383;28;20452;-72
2021/01/19 09:48:36;;;;;;;3.53;2.47;;;;;;;2.57;92.37;99509.13;4991637;28;20449;-74
2021/01/19 09:51:03;;;;;;;4.20;2.10;;;;;;;2.56;91.89;99502.94;4991783;28;20173;-79
2021/01/19 09:53:32;;;;;;;3.13;2.10;;;;;;;2.56;91.90;99502.13;4991552;28;20420;-75
2021/01/19 09:55:57;;;;;;;2.60;2.33;;;;;;;2.52;92.66;99487.59;4991704;28;20424;-72
2021/01/19 09:58:24;;;;;;;2.63;2.30;;;;;;;2.54;92.50;99496.22;4991597;28;20420;-73
2021/01/19 10:00:50;;;;;;;1.43;0.97;;;;;;;2.54;92.32;99499.72;4991617;28;20166;-72
2021/01/19 10:03:17;;;;;;;6.77;3.80;;;;;;;2.50;92.42;99476.31;4991772;28;20471;-82
2021/01/19 10:06:04;;;;;;;3.67;3.00;;;;;;;2.47;92.78;99474.19;4991774;28;20940;-74
2021/01/19 10:08:30;;;;;;;1.53;1.13;;;;;;;2.42;92.76;99482.28;4991003;28;20419;-74
2021/01/19 10:10:56;;;;;;;0.53;0.53;;;;;;;2.41;92.94;99475.28;4991703;28;20420;-75
2021/01/19 10:13:30;;;;;;;1.23;1.23;;;;;;;2.39;93.14;99464.78;4991892;28;20428;-72
2021/01/19 10:15:57;;;;;;;2.10;1.60;;;;;;;2.37;93.58;99457.00;4991340;28;20169;-73
2021/01/19 10:18:23;;;;;;;2.23;2.00;;;;;;;2.36;93.24;99450.00;4991178;28;20471;-76
2021/01/19 10:20:49;;;;;;;2.20;1.43;;;;;;;2.38;93.29;99463.19;4991108;28;20500;-74
2021/01/19 10:23:23;;;;;;;2.17;1.90;;;;;;;2.42;93.37;99436.47;4991278;28;20201;-73
2021/01/19 10:25:55;;;;;;;2.83;1.63;;;;;;;2.36;93.44;99427.63;4973958;28;20494;-74
2021/01/19 10:28:24;;;;;;;1.47;1.13;;;;;;;2.34;93.01;99419.81;4991607;28;20486;-74
2021/01/19 10:30:49;;;;;;;2.77;1.77;;;;;;;2.34;93.22;99414.44;4974251;28;20802;-76
2021/01/19 10:33:26;;;;;;;1.87;1.50;;;;;;;2.34;93.35;99409.06;4990540;28;20424;-78
2021/01/19 10:35:51;;;;;;;1.57;0.97;;;;;;;2.35;93.06;99402.56;4984546;28;20267;-79
2021/01/19 10:38:25;;;;;;;0.60;0.50;;;;;;;2.37;93.20;99400.41;4989097;28;20442;-76
2021/01/19 10:40:51;;;;;;;1.20;1.10;;;;;;;2.35;93.41;99383.72;4988827;28;20181;-75
2021/01/19 10:43:16;;;;;;;0.90;0.90;;;;;;;2.32;93.50;99372.69;4989830;28;20817;-76
2021/01/19 10:45:42;;;;;;;1.93;1.43;;;;;;;2.31;93.54;99374.56;4991084;28;20287;-75
2021/01/19 10:48:19;;;;;;;0.90;0.90;;;;;;;2.29;93.55;99357.88;4990517;28;20235;-75
2021/01/19 10:50:44;;;;;;;0.90;0.80;;;;;;;2.27;93.73;99351.16;4990585;28;20180;-76
2021/01/19 10:53:10;;;;;;;1.37;1.20;;;;;;;2.26;93.63;99341.47;4973226;28;20436;-76
2021/01/19 10:55:35;;;;;;;0.87;0.87;;;;;;;2.27;93.47;99353.84;4973694;28;20332;-76
2021/01/19 10:58:02;;;;;;;1.73;0.87;;;;;;;2.28;93.69;99350.06;4990327;28;20181;-74
2021/01/19 11:00:29;;;;;;;1.27;1.17;;;;;;;2.29;93.85;99348.97;4990769;28;20169;-76
2021/01/19 11:02:55;;;;;;;1.40;1.40;;;;;;;2.31;93.78;99342.22;4990832;28;20936;-75
2021/01/19 11:05:21;;;;;;;0.27;0.20;;;;;;;2.28;93.35;99334.72;4990935;28;20435;-74
2021/01/19 11:07:48;;;;;;;0.77;0.73;;;;;;;2.33;93.99;99329.28;4990428;28;20211;-76
2021/01/19 11:10:16;;;;;;;0.50;0.50;;;;;;;2.30;93.62;99321.75;4973553;28;20436;-77
2021/01/19 11:12:42;;;;;;;0.60;0.60;;;;;;;2.32;93.50;99316.09;4991356;28;20916;-76
2021/01/19 11:15:09;;;;;;;0.60;0.60;;;;;;;2.33;93.57;99321.19;4991433;28;20447;-72
2021/01/19 11:17:36;;;;;;;0.77;0.73;;;;;;;2.36;93.49;99309.84;4990271;28;20649;-72
2021/01/19 11:20:05;;;;;;;1.10;0.90;;;;;;;2.36;93.31;99317.13;4990682;28;20416;-72
2021/01/19 11:22:31;;;;;;;0.90;0.87;;;;;;;2.41;93.07;99316.25;4973147;28;20432;-73
2021/01/19 11:24:56;;;;;;;1.43;0.83;;;;;;;2.46;93.18;99302.72;4991087;28;20420;-72
2021/01/19 11:27:21;;;;;;;0.80;0.80;;;;;;;2.49;93.25;99311.06;4990244;28;20184;-73
2021/01/19 11:29:47;;;;;;;1.27;0.70;;;;;;;2.51;93.24;99313.47;4993475;28;20181;-73
2021/01/19 11:32:12;;;;;;;0.57;0.57;;;;;;;2.57;92.91;99293.44;4994229;28;20202;-72
2021/01/19 11:34:38;;;;;;;0.60;0.50;;;;;;;2.59;93.13;99292.06;4994165;28;20254;-73
2021/01/19 11:37:03;;;;;;;0.00;0.00;;;;;;;2.63;93.13;99295.81;4993733;28;20657;-72
2021/01/19 11:39:29;;;;;;;0.20;0.20;;;;;;;2.64;92.87;99293.91;4994057;28;20637;-72
2021/01/19 11:41:55;;;;;;;0.50;0.50;;;;;;;2.65;92.90;99285.53;4994110;28;20197;-72
2021/01/19 11:44:22;;;;;;;0.60;0.60;;;;;;;2.66;93.42;99280.94;4992347;28;20304;-73
2021/01/19 11:46:48;;;;;;;0.60;0.40;;;;;;;2.72;92.69;99277.09;4993527;28;20166;-73